sensor_id;sensor_type;location;lat;lon;timestamp;P1;durP1;ratioP1;P2;durP2;ratioP2
56102;SDS011;41970;48.774;9.280;2022-09-09T00:05:29;3.27;;;1.87;;
56102;SDS011;41970;48.774;9.280;2022-09-09T00:07:54;7.27;;;2.33;;
56102;SDS011;41970;48.774;9.280;2022-09-09T00:13:09;3.03;;;1.70;;
56102;SDS011;41970;48.774;9.280;2022-09-09T00:21:06;3.07;;;2.07;;
56102;SDS011;41970;48.774;9.280;2022-09-09T00:23:39;2.60;;;1.80;;
56102;SDS011;41970;48.774;9.280;2022-09-09T00:29:32;3.80;;;1.53;;
56102;SDS011;41970;48.774;9.280;2022-09-09T00:31:33;2.57;;;1.70;;
56102;SDS011;41970;48.774;9.280;2022-09-09T00:34:05;2.13;;;1.80;;
56102;SDS011;41970;48.774;9.280;2022-09-09T00:36:38;3.17;;;1.73;;
56102;SDS011;41970;48.774;9.280;2022-09-09T00:39:04;2.37;;;1.60;;
56102;SDS011;41970;48.774;9.280;2022-09-09T00:41:53;3.00;;;1.57;;
56102;SDS011;41970;48.774;9.280;2022-09-09T00:44:34;3.30;;;2.30;;
56102;SDS011;41970;48.774;9.280;2022-09-09T00:55:16;4.03;;;2.00;;
56102;SDS011;41970;48.774;9.280;2022-09-09T00:57:45;2.63;;;1.70;;
56102;SDS011;41970;48.774;9.280;2022-09-09T01:05:36;2.60;;;1.90;;
56102;SDS011;41970;48.774;9.280;2022-09-09T01:10:47;2.70;;;2.10;;
56102;SDS011;41970;48.774;9.280;2022-09-09T01:13:22;2.70;;;1.50;;
56102;SDS011;41970;48.774;9.280;2022-09-09T01:15:55;2.43;;;1.90;;
56102;SDS011;41970;48.774;9.280;2022-09-09T01:18:26;2.07;;;1.57;;
56102;SDS011;41970;48.774;9.280;2022-09-09T01:29:00;3.13;;;1.80;;
56102;SDS011;41970;48.774;9.280;2022-09-09T01:31:27;4.83;;;1.97;;
56102;SDS011;41970;48.774;9.280;2022-09-09T01:33:59;1.83;;;1.47;;
56102;SDS011;41970;48.774;9.280;2022-09-09T01:39:03;4.27;;;1.43;;
56102;SDS011;41970;48.774;9.280;2022-09-09T01:41:29;2.13;;;1.57;;
56102;SDS011;41970;48.774;9.280;2022-09-09T01:43:55;3.37;;;2.33;;
56102;SDS011;41970;48.774;9.280;2022-09-09T01:46:24;2.20;;;1.70;;
56102;SDS011;41970;48.774;9.280;2022-09-09T01:48:51;1.97;;;1.67;;
56102;SDS011;41970;48.774;9.280;2022-09-09T01:51:18;2.50;;;1.83;;
56102;SDS011;41970;48.774;9.280;2022-09-09T01:53:44;2.03;;;1.67;;
56102;SDS011;41970;48.774;9.280;2022-09-09T02:04:36;3.43;;;1.63;;
56102;SDS011;41970;48.774;9.280;2022-09-09T02:07:02;3.33;;;1.80;;
56102;SDS011;41970;48.774;9.280;2022-09-09T02:09:40;1.93;;;1.37;;
56102;SDS011;41970;48.774;9.280;2022-09-09T02:12:14;5.03;;;2.07;;
56102;SDS011;41970;48.774;9.280;2022-09-09T02:14:47;2.23;;;1.50;;
56102;SDS011;41970;48.774;9.280;2022-09-09T02:17:35;2.07;;;1.40;;
56102;SDS011;41970;48.774;9.280;2022-09-09T02:20:13;2.27;;;1.30;;
56102;SDS011;41970;48.774;9.280;2022-09-09T02:22:41;4.43;;;1.80;;
56102;SDS011;41970;48.774;9.280;2022-09-09T02:25:10;2.10;;;1.40;;
56102;SDS011;41970;48.774;9.280;2022-09-09T02:27:40;2.47;;;1.77;;
56102;SDS011;41970;48.774;9.280;2022-09-09T02:30:08;4.23;;;1.60;;
56102;SDS011;41970;48.774;9.280;2022-09-09T02:32:35;2.23;;;1.40;;
56102;SDS011;41970;48.774;9.280;2022-09-09T02:35:08;2.07;;;1.50;;
56102;SDS011;41970;48.774;9.280;2022-09-09T02:37:37;3.97;;;1.57;;
56102;SDS011;41970;48.774;9.280;2022-09-09T02:40:05;2.17;;;1.97;;
56102;SDS011;41970;48.774;9.280;2022-09-09T02:42:42;3.70;;;1.40;;
56102;SDS011;41970;48.774;9.280;2022-09-09T02:45:10;2.63;;;1.50;;
56102;SDS011;41970;48.774;9.280;2022-09-09T02:47:47;4.00;;;1.80;;
56102;SDS011;41970;48.774;9.280;2022-09-09T02:52:59;2.47;;;1.60;;
56102;SDS011;41970;48.774;9.280;2022-09-09T02:55:40;3.10;;;1.60;;
56102;SDS011;41970;48.774;9.280;2022-09-09T02:58:34;2.17;;;1.30;;
56102;SDS011;41970;48.774;9.280;2022-09-09T03:01:01;3.20;;;1.70;;
56102;SDS011;41970;48.774;9.280;2022-09-09T03:03:28;4.13;;;1.50;;
56102;SDS011;41970;48.774;9.280;2022-09-09T03:05:55;3.20;;;1.80;;
56102;SDS011;41970;48.774;9.280;2022-09-09T03:08:22;1.97;;;1.50;;
56102;SDS011;41970;48.774;9.280;2022-09-09T03:10:48;3.23;;;1.50;;
56102;SDS011;41970;48.774;9.280;2022-09-09T03:13:14;6.77;;;2.27;;
56102;SDS011;41970;48.774;9.280;2022-09-09T03:15:40;2.27;;;1.43;;
56102;SDS011;41970;48.774;9.280;2022-09-09T03:18:07;3.57;;;1.53;;
56102;SDS011;41970;48.774;9.280;2022-09-09T03:20:32;2.27;;;1.60;;
56102;SDS011;41970;48.774;9.280;2022-09-09T03:22:59;1.50;;;1.40;;
56102;SDS011;41970;48.774;9.280;2022-09-09T03:25:25;2.57;;;1.30;;
56102;SDS011;41970;48.774;9.280;2022-09-09T03:27:52;4.30;;;1.40;;
56102;SDS011;41970;48.774;9.280;2022-09-09T03:30:26;4.10;;;1.30;;
56102;SDS011;41970;48.774;9.280;2022-09-09T03:32:53;2.50;;;1.80;;
56102;SDS011;41970;48.774;9.280;2022-09-09T03:35:20;1.90;;;1.50;;
56102;SDS011;41970;48.774;9.280;2022-09-09T03:37:46;3.47;;;1.53;;
56102;SDS011;41970;48.774;9.280;2022-09-09T03:40:12;4.83;;;1.80;;
56102;SDS011;41970;48.774;9.280;2022-09-09T03:42:41;2.73;;;1.60;;
56102;SDS011;41970;48.774;9.280;2022-09-09T03:45:07;3.03;;;1.30;;
56102;SDS011;41970;48.774;9.280;2022-09-09T03:47:35;4.37;;;1.40;;
56102;SDS011;41970;48.774;9.280;2022-09-09T03:50:02;3.10;;;2.40;;
56102;SDS011;41970;48.774;9.280;2022-09-09T03:52:31;3.60;;;2.40;;
56102;SDS011;41970;48.774;9.280;2022-09-09T03:54:59;3.20;;;2.30;;
56102;SDS011;41970;48.774;9.280;2022-09-09T03:57:24;3.53;;;2.43;;
56102;SDS011;41970;48.774;9.280;2022-09-09T03:59:50;3.30;;;2.20;;
56102;SDS011;41970;48.774;9.280;2022-09-09T04:02:16;3.13;;;2.77;;
56102;SDS011;41970;48.774;9.280;2022-09-09T04:04:42;3.90;;;2.33;;
56102;SDS011;41970;48.774;9.280;2022-09-09T04:07:08;2.83;;;2.30;;
56102;SDS011;41970;48.774;9.280;2022-09-09T04:09:34;2.90;;;2.00;;
56102;SDS011;41970;48.774;9.280;2022-09-09T04:12:00;2.83;;;1.90;;
56102;SDS011;41970;48.774;9.280;2022-09-09T04:14:25;2.93;;;1.90;;
56102;SDS011;41970;48.774;9.280;2022-09-09T04:16:54;2.40;;;2.00;;
56102;SDS011;41970;48.774;9.280;2022-09-09T04:19:21;3.77;;;1.97;;
56102;SDS011;41970;48.774;9.280;2022-09-09T04:21:46;4.87;;;2.27;;
56102;SDS011;41970;48.774;9.280;2022-09-09T04:24:16;2.43;;;2.00;;
56102;SDS011;41970;48.774;9.280;2022-09-09T04:26:42;4.43;;;1.90;;
56102;SDS011;41970;48.774;9.280;2022-09-09T04:29:08;5.57;;;2.30;;
56102;SDS011;41970;48.774;9.280;2022-09-09T04:31:34;3.20;;;2.00;;
56102;SDS011;41970;48.774;9.280;2022-09-09T04:34:00;2.83;;;2.00;;
56102;SDS011;41970;48.774;9.280;2022-09-09T04:36:31;3.00;;;1.63;;
56102;SDS011;41970;48.774;9.280;2022-09-09T04:38:58;2.43;;;1.97;;
56102;SDS011;41970;48.774;9.280;2022-09-09T04:41:24;6.50;;;2.10;;
56102;SDS011;41970;48.774;9.280;2022-09-09T04:43:50;3.67;;;1.87;;
56102;SDS011;41970;48.774;9.280;2022-09-09T04:46:17;4.90;;;1.60;;
56102;SDS011;41970;48.774;9.280;2022-09-09T04:48:43;5.13;;;1.70;;
56102;SDS011;41970;48.774;9.280;2022-09-09T04:51:10;3.90;;;2.10;;
56102;SDS011;41970;48.774;9.280;2022-09-09T04:53:38;2.17;;;1.40;;
56102;SDS011;41970;48.774;9.280;2022-09-09T04:56:06;5.23;;;1.97;;
56102;SDS011;41970;48.774;9.280;2022-09-09T04:58:35;2.23;;;2.00;;
56102;SDS011;41970;48.774;9.280;2022-09-09T05:01:06;4.60;;;1.80;;
56102;SDS011;41970;48.774;9.280;2022-09-09T05:03:39;2.10;;;1.90;;
56102;SDS011;41970;48.774;9.280;2022-09-09T05:06:08;3.80;;;2.33;;
56102;SDS011;41970;48.774;9.280;2022-09-09T05:08:39;4.00;;;1.97;;
56102;SDS011;41970;48.774;9.280;2022-09-09T05:11:16;1.90;;;1.70;;
56102;SDS011;41970;48.774;9.280;2022-09-09T05:13:48;12.53;;;2.80;;
56102;SDS011;41970;48.774;9.280;2022-09-09T05:16:15;4.60;;;1.80;;
56102;SDS011;41970;48.774;9.280;2022-09-09T05:18:42;5.27;;;2.07;;
56102;SDS011;41970;48.774;9.280;2022-09-09T05:21:08;2.50;;;1.70;;
56102;SDS011;41970;48.774;9.280;2022-09-09T05:23:35;2.43;;;1.80;;
56102;SDS011;41970;48.774;9.280;2022-09-09T05:26:02;3.30;;;1.80;;
56102;SDS011;41970;48.774;9.280;2022-09-09T05:28:29;2.90;;;1.77;;
56102;SDS011;41970;48.774;9.280;2022-09-09T05:30:59;1.83;;;1.30;;
56102;SDS011;41970;48.774;9.280;2022-09-09T05:33:28;4.10;;;2.07;;
56102;SDS011;41970;48.774;9.280;2022-09-09T05:36:04;3.40;;;1.70;;
56102;SDS011;41970;48.774;9.280;2022-09-09T05:38:36;2.70;;;2.13;;
56102;SDS011;41970;48.774;9.280;2022-09-09T05:41:03;3.73;;;2.03;;
56102;SDS011;41970;48.774;9.280;2022-09-09T05:43:29;2.73;;;1.43;;
56102;SDS011;41970;48.774;9.280;2022-09-09T05:48:48;2.60;;;1.77;;
56102;SDS011;41970;48.774;9.280;2022-09-09T05:51:22;4.83;;;2.00;;
56102;SDS011;41970;48.774;9.280;2022-09-09T05:53:53;3.60;;;2.03;;
56102;SDS011;41970;48.774;9.280;2022-09-09T05:56:28;4.20;;;2.53;;
56102;SDS011;41970;48.774;9.280;2022-09-09T05:58:55;3.60;;;2.40;;
56102;SDS011;41970;48.774;9.280;2022-09-09T06:01:22;6.00;;;2.20;;
56102;SDS011;41970;48.774;9.280;2022-09-09T06:03:52;3.80;;;2.20;;
56102;SDS011;41970;48.774;9.280;2022-09-09T06:06:22;4.20;;;1.70;;
56102;SDS011;41970;48.774;9.280;2022-09-09T06:08:51;4.23;;;2.63;;
56102;SDS011;41970;48.774;9.280;2022-09-09T06:11:22;4.40;;;2.13;;
56102;SDS011;41970;48.774;9.280;2022-09-09T06:13:50;2.77;;;1.77;;
56102;SDS011;41970;48.774;9.280;2022-09-09T06:16:19;4.23;;;1.70;;
56102;SDS011;41970;48.774;9.280;2022-09-09T06:18:48;5.97;;;2.47;;
56102;SDS011;41970;48.774;9.280;2022-09-09T06:21:19;3.73;;;1.93;;
56102;SDS011;41970;48.774;9.280;2022-09-09T06:23:47;2.23;;;1.70;;
56102;SDS011;41970;48.774;9.280;2022-09-09T06:26:14;6.20;;;3.10;;
56102;SDS011;41970;48.774;9.280;2022-09-09T06:28:48;3.30;;;2.10;;
56102;SDS011;41970;48.774;9.280;2022-09-09T06:31:16;4.43;;;2.03;;
56102;SDS011;41970;48.774;9.280;2022-09-09T06:33:43;6.47;;;2.00;;
56102;SDS011;41970;48.774;9.280;2022-09-09T06:36:28;4.47;;;2.47;;
56102;SDS011;41970;48.774;9.280;2022-09-09T06:38:58;2.90;;;1.83;;
56102;SDS011;41970;48.774;9.280;2022-09-09T06:41:26;2.87;;;2.00;;
56102;SDS011;41970;48.774;9.280;2022-09-09T06:43:53;5.83;;;2.07;;
56102;SDS011;41970;48.774;9.280;2022-09-09T06:46:24;4.33;;;2.00;;
56102;SDS011;41970;48.774;9.280;2022-09-09T06:48:53;4.00;;;2.10;;
56102;SDS011;41970;48.774;9.280;2022-09-09T06:51:21;3.63;;;1.87;;
56102;SDS011;41970;48.774;9.280;2022-09-09T06:53:49;3.67;;;1.73;;
56102;SDS011;41970;48.774;9.280;2022-09-09T06:58:43;6.90;;;2.50;;
56102;SDS011;41970;48.774;9.280;2022-09-09T07:01:14;7.10;;;1.67;;
56102;SDS011;41970;48.774;9.280;2022-09-09T07:03:45;5.67;;;1.83;;
56102;SDS011;41970;48.774;9.280;2022-09-09T07:06:20;3.37;;;1.90;;
56102;SDS011;41970;48.774;9.280;2022-09-09T07:08:51;4.47;;;1.60;;
56102;SDS011;41970;48.774;9.280;2022-09-09T07:11:21;1.83;;;1.60;;
56102;SDS011;41970;48.774;9.280;2022-09-09T07:13:49;2.50;;;1.80;;
56102;SDS011;41970;48.774;9.280;2022-09-09T07:16:16;3.07;;;1.67;;
56102;SDS011;41970;48.774;9.280;2022-09-09T07:18:43;7.90;;;1.83;;
56102;SDS011;41970;48.774;9.280;2022-09-09T07:21:11;7.60;;;1.97;;
56102;SDS011;41970;48.774;9.280;2022-09-09T07:23:37;1.97;;;1.60;;
56102;SDS011;41970;48.774;9.280;2022-09-09T07:26:11;3.10;;;1.67;;
56102;SDS011;41970;48.774;9.280;2022-09-09T07:28:39;3.43;;;2.07;;
56102;SDS011;41970;48.774;9.280;2022-09-09T07:31:12;2.77;;;1.83;;
56102;SDS011;41970;48.774;9.280;2022-09-09T07:33:42;4.07;;;1.93;;
56102;SDS011;41970;48.774;9.280;2022-09-09T07:36:09;4.50;;;2.23;;
56102;SDS011;41970;48.774;9.280;2022-09-09T07:38:44;2.03;;;1.33;;
56102;SDS011;41970;48.774;9.280;2022-09-09T07:41:13;1.97;;;1.77;;
56102;SDS011;41970;48.774;9.280;2022-09-09T07:43:45;3.47;;;1.90;;
56102;SDS011;41970;48.774;9.280;2022-09-09T07:46:13;2.53;;;2.13;;
56102;SDS011;41970;48.774;9.280;2022-09-09T07:48:47;2.40;;;1.73;;
56102;SDS011;41970;48.774;9.280;2022-09-09T07:51:21;3.90;;;1.87;;
56102;SDS011;41970;48.774;9.280;2022-09-09T07:53:51;4.90;;;2.60;;
56102;SDS011;41970;48.774;9.280;2022-09-09T07:56:19;2.23;;;1.77;;
56102;SDS011;41970;48.774;9.280;2022-09-09T07:58:49;2.50;;;2.07;;
56102;SDS011;41970;48.774;9.280;2022-09-09T08:01:39;2.80;;;1.50;;
56102;SDS011;41970;48.774;9.280;2022-09-09T08:04:07;5.10;;;1.80;;
56102;SDS011;41970;48.774;9.280;2022-09-09T08:06:35;3.53;;;1.93;;
56102;SDS011;41970;48.774;9.280;2022-09-09T08:09:03;2.57;;;1.30;;
56102;SDS011;41970;48.774;9.280;2022-09-09T08:11:30;1.67;;;1.57;;
56102;SDS011;41970;48.774;9.280;2022-09-09T08:13:58;3.70;;;1.60;;
56102;SDS011;41970;48.774;9.280;2022-09-09T08:16:28;2.87;;;1.70;;
56102;SDS011;41970;48.774;9.280;2022-09-09T08:18:56;4.57;;;1.93;;
56102;SDS011;41970;48.774;9.280;2022-09-09T08:21:23;3.90;;;2.03;;
56102;SDS011;41970;48.774;9.280;2022-09-09T08:23:53;2.07;;;1.73;;
56102;SDS011;41970;48.774;9.280;2022-09-09T08:26:33;2.40;;;1.80;;
56102;SDS011;41970;48.774;9.280;2022-09-09T08:29:01;3.80;;;1.80;;
56102;SDS011;41970;48.774;9.280;2022-09-09T08:31:33;2.30;;;2.00;;
56102;SDS011;41970;48.774;9.280;2022-09-09T08:34:02;2.87;;;1.73;;
56102;SDS011;41970;48.774;9.280;2022-09-09T08:36:30;4.80;;;1.93;;
56102;SDS011;41970;48.774;9.280;2022-09-09T08:39:02;3.03;;;1.67;;
56102;SDS011;41970;48.774;9.280;2022-09-09T08:52:29;4.47;;;1.60;;
56102;SDS011;41970;48.774;9.280;2022-09-09T09:00:19;2.33;;;1.40;;
56102;SDS011;41970;48.774;9.280;2022-09-09T09:02:53;3.33;;;1.87;;
56102;SDS011;41970;48.774;9.280;2022-09-09T09:05:40;2.30;;;1.63;;
56102;SDS011;41970;48.774;9.280;2022-09-09T09:08:12;4.00;;;1.50;;
56102;SDS011;41970;48.774;9.280;2022-09-09T09:10:51;2.40;;;1.63;;
56102;SDS011;41970;48.774;9.280;2022-09-09T09:15:49;2.30;;;1.53;;
56102;SDS011;41970;48.774;9.280;2022-09-09T09:18:19;2.40;;;1.40;;
56102;SDS011;41970;48.774;9.280;2022-09-09T09:20:50;3.87;;;2.00;;
56102;SDS011;41970;48.774;9.280;2022-09-09T09:23:29;2.97;;;1.50;;
56102;SDS011;41970;48.774;9.280;2022-09-09T09:26:06;2.73;;;1.10;;
56102;SDS011;41970;48.774;9.280;2022-09-09T09:28:35;1.83;;;1.23;;
56102;SDS011;41970;48.774;9.280;2022-09-09T09:36:07;2.57;;;1.70;;
56102;SDS011;41970;48.774;9.280;2022-09-09T09:38:33;2.17;;;1.00;;
56102;SDS011;41970;48.774;9.280;2022-09-09T09:41:00;6.67;;;2.03;;
56102;SDS011;41970;48.774;9.280;2022-09-09T09:43:36;3.17;;;1.87;;
56102;SDS011;41970;48.774;9.280;2022-09-09T09:46:05;1.20;;;1.10;;
56102;SDS011;41970;48.774;9.280;2022-09-09T09:49:01;2.63;;;1.43;;
56102;SDS011;41970;48.774;9.280;2022-09-09T09:51:33;2.40;;;1.87;;
56102;SDS011;41970;48.774;9.280;2022-09-09T09:54:06;2.67;;;1.40;;
56102;SDS011;41970;48.774;9.280;2022-09-09T09:56:40;1.50;;;1.10;;
56102;SDS011;41970;48.774;9.280;2022-09-09T10:05:01;3.33;;;1.70;;
56102;SDS011;41970;48.774;9.280;2022-09-09T10:07:31;2.73;;;1.40;;
56102;SDS011;41970;48.774;9.280;2022-09-09T10:09:58;2.73;;;1.60;;
56102;SDS011;41970;48.774;9.280;2022-09-09T10:12:28;2.70;;;1.37;;
56102;SDS011;41970;48.774;9.280;2022-09-09T10:17:59;3.57;;;1.70;;
56102;SDS011;41970;48.774;9.280;2022-09-09T10:23:46;1.73;;;1.30;;
56102;SDS011;41970;48.774;9.280;2022-09-09T10:26:11;1.80;;;1.30;;
56102;SDS011;41970;48.774;9.280;2022-09-09T10:29:45;2.60;;;1.50;;
56102;SDS011;41970;48.774;9.280;2022-09-09T10:32:06;2.50;;;1.47;;
56102;SDS011;41970;48.774;9.280;2022-09-09T10:35:04;4.10;;;1.57;;
56102;SDS011;41970;48.774;9.280;2022-09-09T10:37:51;2.33;;;1.53;;
56102;SDS011;41970;48.774;9.280;2022-09-09T10:40:42;1.80;;;1.70;;
56102;SDS011;41970;48.774;9.280;2022-09-09T10:46:01;3.47;;;2.03;;
56102;SDS011;41970;48.774;9.280;2022-09-09T10:48:47;2.03;;;1.83;;
56102;SDS011;41970;48.774;9.280;2022-09-09T10:51:36;3.67;;;1.87;;
56102;SDS011;41970;48.774;9.280;2022-09-09T10:57:03;5.53;;;2.20;;
56102;SDS011;41970;48.774;9.280;2022-09-09T10:59:36;2.43;;;1.23;;
56102;SDS011;41970;48.774;9.280;2022-09-09T11:02:13;2.83;;;1.47;;
56102;SDS011;41970;48.774;9.280;2022-09-09T11:05:03;1.90;;;1.47;;
56102;SDS011;41970;48.774;9.280;2022-09-09T11:07:35;3.97;;;1.90;;
56102;SDS011;41970;48.774;9.280;2022-09-09T11:13:52;3.20;;;1.30;;
56102;SDS011;41970;48.774;9.280;2022-09-09T11:15:58;2.13;;;1.70;;
56102;SDS011;41970;48.774;9.280;2022-09-09T11:18:49;3.80;;;1.70;;
56102;SDS011;41970;48.774;9.280;2022-09-09T11:21:20;4.40;;;1.80;;
56102;SDS011;41970;48.774;9.280;2022-09-09T11:23:54;2.33;;;1.63;;
56102;SDS011;41970;48.774;9.280;2022-09-09T11:26:31;3.20;;;1.43;;
56102;SDS011;41970;48.774;9.280;2022-09-09T11:29:27;2.90;;;1.63;;
56102;SDS011;41970;48.774;9.280;2022-09-09T11:37:41;1.50;;;1.40;;
56102;SDS011;41970;48.774;9.280;2022-09-09T11:40:23;2.83;;;1.50;;
56102;SDS011;41970;48.774;9.280;2022-09-09T11:43:00;3.60;;;1.40;;
56102;SDS011;41970;48.774;9.280;2022-09-09T11:45:30;2.40;;;1.20;;
56102;SDS011;41970;48.774;9.280;2022-09-09T11:47:59;3.33;;;1.37;;
56102;SDS011;41970;48.774;9.280;2022-09-09T11:55:39;3.63;;;1.20;;
56102;SDS011;41970;48.774;9.280;2022-09-09T11:58:05;2.03;;;1.13;;
56102;SDS011;41970;48.774;9.280;2022-09-09T12:00:45;2.73;;;1.33;;
56102;SDS011;41970;48.774;9.280;2022-09-09T12:06:19;0.90;;;0.80;;
56102;SDS011;41970;48.774;9.280;2022-09-09T12:08:53;1.90;;;1.07;;
56102;SDS011;41970;48.774;9.280;2022-09-09T12:11:29;0.87;;;0.77;;
56102;SDS011;41970;48.774;9.280;2022-09-09T12:13:58;0.80;;;0.80;;
56102;SDS011;41970;48.774;9.280;2022-09-09T12:16:37;1.57;;;1.03;;
56102;SDS011;41970;48.774;9.280;2022-09-09T12:19:12;3.43;;;0.97;;
56102;SDS011;41970;48.774;9.280;2022-09-09T12:21:48;0.90;;;0.80;;
56102;SDS011;41970;48.774;9.280;2022-09-09T12:24:35;1.40;;;0.70;;
56102;SDS011;41970;48.774;9.280;2022-09-09T12:27:31;2.57;;;1.20;;
56102;SDS011;41970;48.774;9.280;2022-09-09T12:30:11;1.00;;;0.80;;
56102;SDS011;41970;48.774;9.280;2022-09-09T12:32:40;2.00;;;0.90;;
56102;SDS011;41970;48.774;9.280;2022-09-09T12:37:50;2.13;;;1.00;;
56102;SDS011;41970;48.774;9.280;2022-09-09T12:40:23;2.53;;;1.10;;
56102;SDS011;41970;48.774;9.280;2022-09-09T12:42:50;2.20;;;0.90;;
56102;SDS011;41970;48.774;9.280;2022-09-09T12:45:17;1.50;;;0.90;;
56102;SDS011;41970;48.774;9.280;2022-09-09T12:47:47;1.63;;;1.00;;
56102;SDS011;41970;48.774;9.280;2022-09-09T12:50:15;1.57;;;1.00;;
56102;SDS011;41970;48.774;9.280;2022-09-09T12:52:56;1.70;;;1.20;;
56102;SDS011;41970;48.774;9.280;2022-09-09T12:55:36;1.30;;;0.83;;
56102;SDS011;41970;48.774;9.280;2022-09-09T12:58:04;1.30;;;1.20;;
56102;SDS011;41970;48.774;9.280;2022-09-09T13:00:32;2.10;;;1.10;;
56102;SDS011;41970;48.774;9.280;2022-09-09T13:03:02;2.70;;;1.13;;
56102;SDS011;41970;48.774;9.280;2022-09-09T13:05:41;2.50;;;1.30;;
56102;SDS011;41970;48.774;9.280;2022-09-09T13:08:09;1.50;;;1.10;;
56102;SDS011;41970;48.774;9.280;2022-09-09T13:10:37;1.67;;;1.00;;
56102;SDS011;41970;48.774;9.280;2022-09-09T13:13:15;2.30;;;1.10;;
56102;SDS011;41970;48.774;9.280;2022-09-09T13:16:18;1.40;;;1.10;;
56102;SDS011;41970;48.774;9.280;2022-09-09T13:18:46;2.00;;;1.13;;
56102;SDS011;41970;48.774;9.280;2022-09-09T13:21:12;1.20;;;1.00;;
56102;SDS011;41970;48.774;9.280;2022-09-09T13:23:39;2.50;;;1.50;;
56102;SDS011;41970;48.774;9.280;2022-09-09T13:26:06;1.70;;;1.20;;
56102;SDS011;41970;48.774;9.280;2022-09-09T13:28:52;2.57;;;1.50;;
56102;SDS011;41970;48.774;9.280;2022-09-09T13:31:21;2.10;;;1.30;;
56102;SDS011;41970;48.774;9.280;2022-09-09T13:33:49;2.30;;;1.40;;
56102;SDS011;41970;48.774;9.280;2022-09-09T13:36:26;2.33;;;1.40;;
56102;SDS011;41970;48.774;9.280;2022-09-09T13:38:57;2.23;;;0.93;;
56102;SDS011;41970;48.774;9.280;2022-09-09T13:41:29;3.97;;;1.23;;
56102;SDS011;41970;48.774;9.280;2022-09-09T13:44:01;1.70;;;1.17;;
56102;SDS011;41970;48.774;9.280;2022-09-09T13:46:39;1.60;;;1.30;;
56102;SDS011;41970;48.774;9.280;2022-09-09T13:51:36;1.20;;;1.10;;
56102;SDS011;41970;48.774;9.280;2022-09-09T13:54:12;1.40;;;1.30;;
56102;SDS011;41970;48.774;9.280;2022-09-09T13:56:40;1.67;;;1.20;;
56102;SDS011;41970;48.774;9.280;2022-09-09T13:59:13;1.30;;;1.20;;
56102;SDS011;41970;48.774;9.280;2022-09-09T14:01:41;1.70;;;1.20;;
56102;SDS011;41970;48.774;9.280;2022-09-09T14:04:08;1.83;;;0.90;;
56102;SDS011;41970;48.774;9.280;2022-09-09T14:06:35;1.57;;;1.47;;
56102;SDS011;41970;48.774;9.280;2022-09-09T14:09:04;2.40;;;1.20;;
56102;SDS011;41970;48.774;9.280;2022-09-09T14:11:31;2.00;;;1.10;;
56102;SDS011;41970;48.774;9.280;2022-09-09T14:13:57;2.07;;;1.17;;
56102;SDS011;41970;48.774;9.280;2022-09-09T14:16:23;2.53;;;1.07;;
56102;SDS011;41970;48.774;9.280;2022-09-09T14:18:52;1.43;;;0.97;;
56102;SDS011;41970;48.774;9.280;2022-09-09T14:21:21;2.10;;;1.10;;
56102;SDS011;41970;48.774;9.280;2022-09-09T14:23:47;2.00;;;1.03;;
56102;SDS011;41970;48.774;9.280;2022-09-09T14:26:14;1.73;;;1.63;;
56102;SDS011;41970;48.774;9.280;2022-09-09T14:28:40;1.27;;;1.00;;
56102;SDS011;41970;48.774;9.280;2022-09-09T14:31:06;1.70;;;1.10;;
56102;SDS011;41970;48.774;9.280;2022-09-09T14:33:35;2.53;;;1.30;;
56102;SDS011;41970;48.774;9.280;2022-09-09T14:36:02;1.20;;;1.10;;
56102;SDS011;41970;48.774;9.280;2022-09-09T14:38:32;1.10;;;0.97;;
56102;SDS011;41970;48.774;9.280;2022-09-09T14:41:22;1.20;;;1.07;;
56102;SDS011;41970;48.774;9.280;2022-09-09T14:43:48;1.23;;;0.97;;
56102;SDS011;41970;48.774;9.280;2022-09-09T14:46:15;2.43;;;1.10;;
56102;SDS011;41970;48.774;9.280;2022-09-09T14:48:43;1.57;;;1.00;;
56102;SDS011;41970;48.774;9.280;2022-09-09T14:51:14;2.73;;;1.03;;
56102;SDS011;41970;48.774;9.280;2022-09-09T14:53:43;1.70;;;1.00;;
56102;SDS011;41970;48.774;9.280;2022-09-09T14:56:10;1.63;;;0.90;;
56102;SDS011;41970;48.774;9.280;2022-09-09T14:58:38;1.03;;;0.93;;
56102;SDS011;41970;48.774;9.280;2022-09-09T15:01:08;1.57;;;1.00;;
56102;SDS011;41970;48.774;9.280;2022-09-09T15:03:37;1.83;;;1.10;;
56102;SDS011;41970;48.774;9.280;2022-09-09T15:06:10;1.27;;;1.00;;
56102;SDS011;41970;48.774;9.280;2022-09-09T15:08:38;1.67;;;1.17;;
56102;SDS011;41970;48.774;9.280;2022-09-09T15:11:09;1.20;;;1.10;;
56102;SDS011;41970;48.774;9.280;2022-09-09T15:13:37;2.87;;;1.60;;
56102;SDS011;41970;48.774;9.280;2022-09-09T15:16:08;2.33;;;1.40;;
56102;SDS011;41970;48.774;9.280;2022-09-09T15:18:36;2.30;;;0.90;;
56102;SDS011;41970;48.774;9.280;2022-09-09T15:21:21;2.47;;;1.40;;
56102;SDS011;41970;48.774;9.280;2022-09-09T15:23:48;4.37;;;1.27;;
56102;SDS011;41970;48.774;9.280;2022-09-09T15:26:16;2.73;;;1.60;;
56102;SDS011;41970;48.774;9.280;2022-09-09T15:28:42;1.90;;;0.90;;
56102;SDS011;41970;48.774;9.280;2022-09-09T15:31:14;1.50;;;1.20;;
56102;SDS011;41970;48.774;9.280;2022-09-09T15:33:48;1.37;;;1.17;;
56102;SDS011;41970;48.774;9.280;2022-09-09T15:36:19;2.57;;;1.17;;
56102;SDS011;41970;48.774;9.280;2022-09-09T15:38:51;3.27;;;1.17;;
56102;SDS011;41970;48.774;9.280;2022-09-09T15:41:18;2.50;;;1.27;;
56102;SDS011;41970;48.774;9.280;2022-09-09T15:43:46;5.70;;;1.50;;
56102;SDS011;41970;48.774;9.280;2022-09-09T15:46:32;1.67;;;1.00;;
56102;SDS011;41970;48.774;9.280;2022-09-09T15:49:10;2.03;;;1.10;;
56102;SDS011;41970;48.774;9.280;2022-09-09T15:51:42;2.17;;;1.00;;
56102;SDS011;41970;48.774;9.280;2022-09-09T15:54:11;1.63;;;1.10;;
56102;SDS011;41970;48.774;9.280;2022-09-09T15:56:39;1.20;;;1.10;;
56102;SDS011;41970;48.774;9.280;2022-09-09T15:59:06;1.30;;;1.00;;
56102;SDS011;41970;48.774;9.280;2022-09-09T16:01:33;2.17;;;1.20;;
56102;SDS011;41970;48.774;9.280;2022-09-09T16:04:00;2.10;;;1.20;;
56102;SDS011;41970;48.774;9.280;2022-09-09T16:06:27;1.67;;;1.03;;
56102;SDS011;41970;48.774;9.280;2022-09-09T16:08:55;1.20;;;1.10;;
56102;SDS011;41970;48.774;9.280;2022-09-09T16:11:25;2.80;;;1.30;;
56102;SDS011;41970;48.774;9.280;2022-09-09T16:13:53;2.50;;;1.23;;
56102;SDS011;41970;48.774;9.280;2022-09-09T16:16:23;1.20;;;1.10;;
56102;SDS011;41970;48.774;9.280;2022-09-09T16:18:56;1.63;;;1.13;;
56102;SDS011;41970;48.774;9.280;2022-09-09T16:21:25;1.67;;;1.00;;
56102;SDS011;41970;48.774;9.280;2022-09-09T16:23:57;1.60;;;1.10;;
56102;SDS011;41970;48.774;9.280;2022-09-09T16:26:25;1.20;;;1.00;;
56102;SDS011;41970;48.774;9.280;2022-09-09T16:28:53;1.63;;;1.40;;
56102;SDS011;41970;48.774;9.280;2022-09-09T16:31:23;2.70;;;1.20;;
56102;SDS011;41970;48.774;9.280;2022-09-09T16:33:50;5.27;;;1.27;;
56102;SDS011;41970;48.774;9.280;2022-09-09T16:36:18;1.60;;;1.10;;
56102;SDS011;41970;48.774;9.280;2022-09-09T16:38:46;2.17;;;1.00;;
56102;SDS011;41970;48.774;9.280;2022-09-09T16:41:13;1.50;;;1.00;;
56102;SDS011;41970;48.774;9.280;2022-09-09T16:43:40;2.70;;;1.30;;
56102;SDS011;41970;48.774;9.280;2022-09-09T16:46:11;1.80;;;1.00;;
56102;SDS011;41970;48.774;9.280;2022-09-09T16:48:46;2.17;;;1.97;;
56102;SDS011;41970;48.774;9.280;2022-09-09T16:51:29;2.60;;;1.30;;
56102;SDS011;41970;48.774;9.280;2022-09-09T16:53:59;2.80;;;1.67;;
56102;SDS011;41970;48.774;9.280;2022-09-09T16:56:28;1.00;;;0.90;;
56102;SDS011;41970;48.774;9.280;2022-09-09T16:59:02;3.77;;;1.30;;
56102;SDS011;41970;48.774;9.280;2022-09-09T17:01:31;1.20;;;1.10;;
56102;SDS011;41970;48.774;9.280;2022-09-09T17:04:03;1.00;;;0.87;;
56102;SDS011;41970;48.774;9.280;2022-09-09T17:06:31;1.47;;;1.00;;
56102;SDS011;41970;48.774;9.280;2022-09-09T17:09:00;1.63;;;1.00;;
56102;SDS011;41970;48.774;9.280;2022-09-09T17:11:29;1.10;;;1.00;;
56102;SDS011;41970;48.774;9.280;2022-09-09T17:13:57;2.30;;;0.80;;